sensor_id;sensor_type;location;lat;lon;timestamp;temperature;humidity
6244;DHT22;3155;49.940;8.450;2022-10-26T00:01:22;10.60;93.40
6244;DHT22;3155;49.940;8.450;2022-10-26T00:03:49;10.70;91.20
6244;DHT22;3155;49.940;8.450;2022-10-26T00:06:18;10.70;86.10
6244;DHT22;3155;49.940;8.450;2022-10-26T00:08:46;10.60;75.60
6244;DHT22;3155;49.940;8.450;2022-10-26T00:11:17;10.70;66.40
6244;DHT22;3155;49.940;8.450;2022-10-26T00:13:44;10.70;56.70
6244;DHT22;3155;49.940;8.450;2022-10-26T00:16:24;10.60;46.10
6244;DHT22;3155;49.940;8.450;2022-10-26T00:18:52;10.70;39.50
6244;DHT22;3155;49.940;8.450;2022-10-26T00:21:18;10.70;32.60
6244;DHT22;3155;49.940;8.450;2022-10-26T00:23:45;10.60;27.80
6244;DHT22;3155;49.940;8.450;2022-10-26T00:26:12;10.60;26.00
6244;DHT22;3155;49.940;8.450;2022-10-26T00:28:39;10.70;26.30
6244;DHT22;3155;49.940;8.450;2022-10-26T00:31:12;10.70;23.80
6244;DHT22;3155;49.940;8.450;2022-10-26T00:33:39;10.70;19.70
6244;DHT22;3155;49.940;8.450;2022-10-26T00:36:06;10.70;16.20
6244;DHT22;3155;49.940;8.450;2022-10-26T00:38:37;10.70;14.80
6244;DHT22;3155;49.940;8.450;2022-10-26T00:41:06;10.80;11.50
6244;DHT22;3155;49.940;8.450;2022-10-26T00:43:36;10.80;5.90
6244;DHT22;3155;49.940;8.450;2022-10-26T00:46:06;10.80;1.00
6244;DHT22;3155;49.940;8.450;2022-10-26T00:48:35;10.80;1.00
6244;DHT22;3155;49.940;8.450;2022-10-26T00:54:16;10.80;1.00
6244;DHT22;3155;49.940;8.450;2022-10-26T00:56:48;10.80;1.00
6244;DHT22;3155;49.940;8.450;2022-10-26T00:59:17;10.80;1.00
6244;DHT22;3155;49.940;8.450;2022-10-26T01:01:45;10.80;1.00
6244;DHT22;3155;49.940;8.450;2022-10-26T01:04:13;10.80;1.00
6244;DHT22;3155;49.940;8.450;2022-10-26T01:06:43;10.70;1.00
6244;DHT22;3155;49.940;8.450;2022-10-26T01:09:11;10.70;1.00
6244;DHT22;3155;49.940;8.450;2022-10-26T01:11:38;10.80;1.00
6244;DHT22;3155;49.940;8.450;2022-10-26T01:14:08;10.70;1.00
6244;DHT22;3155;49.940;8.450;2022-10-26T01:21:55;10.60;1.00
6244;DHT22;3155;49.940;8.450;2022-10-26T01:24:48;10.70;1.00
6244;DHT22;3155;49.940;8.450;2022-10-26T01:27:26;10.70;1.00
6244;DHT22;3155;49.940;8.450;2022-10-26T01:33:11;10.70;1.00
6244;DHT22;3155;49.940;8.450;2022-10-26T01:43:41;10.80;1.00
6244;DHT22;3155;49.940;8.450;2022-10-26T01:46:09;10.70;1.00
6244;DHT22;3155;49.940;8.450;2022-10-26T01:48:37;10.80;1.00
6244;DHT22;3155;49.940;8.450;2022-10-26T01:51:06;10.80;1.00
6244;DHT22;3155;49.940;8.450;2022-10-26T01:53:33;10.80;1.00
6244;DHT22;3155;49.940;8.450;2022-10-26T01:56:00;10.80;1.00
6244;DHT22;3155;49.940;8.450;2022-10-26T02:01:32;10.80;1.00
6244;DHT22;3155;49.940;8.450;2022-10-26T02:07:01;10.80;1.00
6244;DHT22;3155;49.940;8.450;2022-10-26T02:15:16;10.70;1.00
6244;DHT22;3155;49.940;8.450;2022-10-26T02:17:53;10.70;1.00
6244;DHT22;3155;49.940;8.450;2022-10-26T02:20:34;10.70;1.00
6244;DHT22;3155;49.940;8.450;2022-10-26T02:23:08;10.70;1.00
6244;DHT22;3155;49.940;8.450;2022-10-26T02:25:39;10.70;1.00
6244;DHT22;3155;49.940;8.450;2022-10-26T02:28:10;10.70;1.00
6244;DHT22;3155;49.940;8.450;2022-10-26T02:30:38;10.70;1.00
6244;DHT22;3155;49.940;8.450;2022-10-26T02:33:15;10.60;1.00
6244;DHT22;3155;49.940;8.450;2022-10-26T02:35:47;10.70;1.00
6244;DHT22;3155;49.940;8.450;2022-10-26T02:38:18;10.60;1.00
6244;DHT22;3155;49.940;8.450;2022-10-26T02:40:47;10.60;1.00
6244;DHT22;3155;49.940;8.450;2022-10-26T02:43:17;10.60;1.00
6244;DHT22;3155;49.940;8.450;2022-10-26T02:45:53;10.70;1.00
6244;DHT22;3155;49.940;8.450;2022-10-26T02:48:22;10.70;1.00
6244;DHT22;3155;49.940;8.450;2022-10-26T02:51:03;10.70;1.00
6244;DHT22;3155;49.940;8.450;2022-10-26T02:54:04;10.70;1.00
6244;DHT22;3155;49.940;8.450;2022-10-26T02:56:50;10.60;1.00
6244;DHT22;3155;49.940;8.450;2022-10-26T02:59:20;10.60;1.00
6244;DHT22;3155;49.940;8.450;2022-10-26T03:01:52;10.60;1.00
6244;DHT22;3155;49.940;8.450;2022-10-26T03:04:19;10.60;1.00
6244;DHT22;3155;49.940;8.450;2022-10-26T03:06:55;10.60;1.60
6244;DHT22;3155;49.940;8.450;2022-10-26T03:09:25;10.60;4.30
6244;DHT22;3155;49.940;8.450;2022-10-26T03:11:52;10.60;8.40
6244;DHT22;3155;49.940;8.450;2022-10-26T03:14:19;10.60;11.90
6244;DHT22;3155;49.940;8.450;2022-10-26T03:16:46;10.60;13.60
6244;DHT22;3155;49.940;8.450;2022-10-26T03:19:13;10.60;16.10
6244;DHT22;3155;49.940;8.450;2022-10-26T03:21:39;10.60;19.10
6244;DHT22;3155;49.940;8.450;2022-10-26T03:24:08;10.60;22.00
6244;DHT22;3155;49.940;8.450;2022-10-26T03:26:35;10.60;23.90
6244;DHT22;3155;49.940;8.450;2022-10-26T03:29:02;10.60;24.20
6244;DHT22;3155;49.940;8.450;2022-10-26T03:31:31;10.60;26.50
6244;DHT22;3155;49.940;8.450;2022-10-26T03:33:58;10.70;28.00
6244;DHT22;3155;49.940;8.450;2022-10-26T03:36:25;10.70;29.20
6244;DHT22;3155;49.940;8.450;2022-10-26T03:38:51;10.70;29.20
6244;DHT22;3155;49.940;8.450;2022-10-26T03:41:27;10.70;30.00
6244;DHT22;3155;49.940;8.450;2022-10-26T03:43:53;10.70;30.50
6244;DHT22;3155;49.940;8.450;2022-10-26T03:46:20;10.70;34.70
6244;DHT22;3155;49.940;8.450;2022-10-26T03:48:47;10.60;36.90
6244;DHT22;3155;49.940;8.450;2022-10-26T03:51:13;10.60;40.40
6244;DHT22;3155;49.940;8.450;2022-10-26T03:53:43;10.60;46.60
6244;DHT22;3155;49.940;8.450;2022-10-26T03:56:10;10.60;51.80
6244;DHT22;3155;49.940;8.450;2022-10-26T03:58:42;10.60;56.20
6244;DHT22;3155;49.940;8.450;2022-10-26T04:01:08;10.50;60.20
6244;DHT22;3155;49.940;8.450;2022-10-26T04:03:38;10.60;64.80
6244;DHT22;3155;49.940;8.450;2022-10-26T04:06:05;10.50;68.10
6244;DHT22;3155;49.940;8.450;2022-10-26T04:08:31;10.50;69.90
6244;DHT22;3155;49.940;8.450;2022-10-26T04:10:58;10.50;72.80
6244;DHT22;3155;49.940;8.450;2022-10-26T04:13:30;10.50;75.40
6244;DHT22;3155;49.940;8.450;2022-10-26T04:15:57;10.50;77.50
6244;DHT22;3155;49.940;8.450;2022-10-26T04:18:24;10.50;78.40
6244;DHT22;3155;49.940;8.450;2022-10-26T04:20:50;10.50;77.90
6244;DHT22;3155;49.940;8.450;2022-10-26T04:23:20;10.40;79.60
6244;DHT22;3155;49.940;8.450;2022-10-26T04:25:47;10.40;86.40
6244;DHT22;3155;49.940;8.450;2022-10-26T04:28:13;10.40;90.10
6244;DHT22;3155;49.940;8.450;2022-10-26T04:30:40;10.50;91.90
6244;DHT22;3155;49.940;8.450;2022-10-26T04:33:07;10.50;94.20
6244;DHT22;3155;49.940;8.450;2022-10-26T04:35:34;10.50;95.80
6244;DHT22;3155;49.940;8.450;2022-10-26T04:38:03;10.50;95.70
6244;DHT22;3155;49.940;8.450;2022-10-26T04:40:33;10.50;95.90
6244;DHT22;3155;49.940;8.450;2022-10-26T04:42:59;10.40;95.30
6244;DHT22;3155;49.940;8.450;2022-10-26T04:45:35;10.40;93.50
6244;DHT22;3155;49.940;8.450;2022-10-26T04:48:08;10.30;90.30
6244;DHT22;3155;49.940;8.450;2022-10-26T04:50:35;10.30;90.40
6244;DHT22;3155;49.940;8.450;2022-10-26T04:53:09;10.30;92.60
6244;DHT22;3155;49.940;8.450;2022-10-26T04:55:35;10.20;95.00
6244;DHT22;3155;49.940;8.450;2022-10-26T04:58:03;10.20;98.40
6244;DHT22;3155;49.940;8.450;2022-10-26T05:00:30;10.20;99.90
6244;DHT22;3155;49.940;8.450;2022-10-26T05:03:03;10.30;99.90
6244;DHT22;3155;49.940;8.450;2022-10-26T05:05:34;10.30;99.90
6244;DHT22;3155;49.940;8.450;2022-10-26T05:08:01;10.30;99.90
6244;DHT22;3155;49.940;8.450;2022-10-26T05:10:31;10.30;99.90
6244;DHT22;3155;49.940;8.450;2022-10-26T05:12:59;10.30;99.90
6244;DHT22;3155;49.940;8.450;2022-10-26T05:15:26;10.30;99.90
6244;DHT22;3155;49.940;8.450;2022-10-26T05:17:55;10.20;99.90
6244;DHT22;3155;49.940;8.450;2022-10-26T05:20:23;10.10;99.90
6244;DHT22;3155;49.940;8.450;2022-10-26T05:22:58;10.10;99.90
6244;DHT22;3155;49.940;8.450;2022-10-26T05:25:28;10.00;99.90
6244;DHT22;3155;49.940;8.450;2022-10-26T05:27:58;9.90;99.90
6244;DHT22;3155;49.940;8.450;2022-10-26T05:30:28;9.90;99.90
6244;DHT22;3155;49.940;8.450;2022-10-26T05:32:59;9.90;99.90
6244;DHT22;3155;49.940;8.450;2022-10-26T05:35:26;9.90;99.90
6244;DHT22;3155;49.940;8.450;2022-10-26T05:37:53;9.90;99.90
6244;DHT22;3155;49.940;8.450;2022-10-26T05:40:20;10.00;99.90
6244;DHT22;3155;49.940;8.450;2022-10-26T05:42:47;10.10;99.90
6244;DHT22;3155;49.940;8.450;2022-10-26T05:45:14;10.10;99.90
6244;DHT22;3155;49.940;8.450;2022-10-26T05:47:43;10.10;99.90
6244;DHT22;3155;49.940;8.450;2022-10-26T05:50:13;10.10;99.90
6244;DHT22;3155;49.940;8.450;2022-10-26T05:52:42;10.10;99.90
6244;DHT22;3155;49.940;8.450;2022-10-26T05:55:12;10.10;99.90
6244;DHT22;3155;49.940;8.450;2022-10-26T05:57:39;10.10;99.90
6244;DHT22;3155;49.940;8.450;2022-10-26T06:05:31;10.00;99.90
6244;DHT22;3155;49.940;8.450;2022-10-26T06:07:59;10.00;99.90
6244;DHT22;3155;49.940;8.450;2022-10-26T06:10:26;10.00;99.90
6244;DHT22;3155;49.940;8.450;2022-10-26T06:12:53;10.00;99.90
6244;DHT22;3155;49.940;8.450;2022-10-26T06:15:20;10.00;99.90
6244;DHT22;3155;49.940;8.450;2022-10-26T06:18:00;10.00;99.90
6244;DHT22;3155;49.940;8.450;2022-10-26T06:23:19;10.00;99.90
6244;DHT22;3155;49.940;8.450;2022-10-26T06:31:19;10.10;99.90
6244;DHT22;3155;49.940;8.450;2022-10-26T06:33:46;10.20;99.90
6244;DHT22;3155;49.940;8.450;2022-10-26T06:36:23;10.20;99.90
6244;DHT22;3155;49.940;8.450;2022-10-26T06:39:06;10.30;99.90
6244;DHT22;3155;49.940;8.450;2022-10-26T06:41:35;10.30;99.90
6244;DHT22;3155;49.940;8.450;2022-10-26T06:44:03;10.30;99.90
6244;DHT22;3155;49.940;8.450;2022-10-26T06:49:21;10.40;99.90
6244;DHT22;3155;49.940;8.450;2022-10-26T06:51:57;10.50;99.90
6244;DHT22;3155;49.940;8.450;2022-10-26T06:57:03;10.60;99.90
6244;DHT22;3155;49.940;8.450;2022-10-26T06:59:36;10.60;99.90
6244;DHT22;3155;49.940;8.450;2022-10-26T07:02:04;10.70;99.90
6244;DHT22;3155;49.940;8.450;2022-10-26T07:04:32;10.70;99.90
6244;DHT22;3155;49.940;8.450;2022-10-26T07:06:59;10.80;99.90
6244;DHT22;3155;49.940;8.450;2022-10-26T07:09:25;10.80;99.90
6244;DHT22;3155;49.940;8.450;2022-10-26T07:11:52;10.80;99.90
6244;DHT22;3155;49.940;8.450;2022-10-26T07:14:19;10.90;99.90
6244;DHT22;3155;49.940;8.450;2022-10-26T07:16:45;10.90;99.90
6244;DHT22;3155;49.940;8.450;2022-10-26T07:19:12;11.00;99.90
6244;DHT22;3155;49.940;8.450;2022-10-26T07:21:38;11.10;99.90
6244;DHT22;3155;49.940;8.450;2022-10-26T07:24:05;11.10;99.90
6244;DHT22;3155;49.940;8.450;2022-10-26T07:26:32;11.20;99.90
6244;DHT22;3155;49.940;8.450;2022-10-26T07:28:59;11.30;99.90
6244;DHT22;3155;49.940;8.450;2022-10-26T07:31:26;11.30;99.90
6244;DHT22;3155;49.940;8.450;2022-10-26T07:33:53;11.40;99.90
6244;DHT22;3155;49.940;8.450;2022-10-26T07:36:22;11.50;99.90
6244;DHT22;3155;49.940;8.450;2022-10-26T07:38:52;11.40;99.90
6244;DHT22;3155;49.940;8.450;2022-10-26T07:41:19;11.40;99.90
6244;DHT22;3155;49.940;8.450;2022-10-26T07:43:46;11.40;99.90
6244;DHT22;3155;49.940;8.450;2022-10-26T07:46:19;11.40;99.90
6244;DHT22;3155;49.940;8.450;2022-10-26T07:48:46;11.50;99.90
6244;DHT22;3155;49.940;8.450;2022-10-26T07:51:12;11.50;99.90
6244;DHT22;3155;49.940;8.450;2022-10-26T07:53:39;11.60;99.90
6244;DHT22;3155;49.940;8.450;2022-10-26T07:56:09;11.70;99.90
6244;DHT22;3155;49.940;8.450;2022-10-26T07:58:36;11.90;99.90
6244;DHT22;3155;49.940;8.450;2022-10-26T08:01:11;11.90;99.90
6244;DHT22;3155;49.940;8.450;2022-10-26T08:03:39;12.10;99.90
6244;DHT22;3155;49.940;8.450;2022-10-26T08:06:06;12.20;99.90
6244;DHT22;3155;49.940;8.450;2022-10-26T08:08:33;12.30;99.90
6244;DHT22;3155;49.940;8.450;2022-10-26T08:11:00;12.50;99.90
6244;DHT22;3155;49.940;8.450;2022-10-26T08:13:27;12.60;99.90
6244;DHT22;3155;49.940;8.450;2022-10-26T08:16:01;12.80;99.90
6244;DHT22;3155;49.940;8.450;2022-10-26T08:18:28;13.10;99.90
6244;DHT22;3155;49.940;8.450;2022-10-26T08:21:01;13.40;99.90
6244;DHT22;3155;49.940;8.450;2022-10-26T08:23:37;13.70;99.90
6244;DHT22;3155;49.940;8.450;2022-10-26T08:26:04;14.00;45.10
6244;DHT22;3155;49.940;8.450;2022-10-26T08:28:31;14.30;1.00
6244;DHT22;3155;49.940;8.450;2022-10-26T08:30:57;14.50;99.90
6244;DHT22;3155;49.940;8.450;2022-10-26T08:33:27;14.70;1.00
6244;DHT22;3155;49.940;8.450;2022-10-26T08:35:58;14.90;99.90
6244;DHT22;3155;49.940;8.450;2022-10-26T08:38:26;15.30;99.90
6244;DHT22;3155;49.940;8.450;2022-10-26T08:40:56;15.80;1.00
6244;DHT22;3155;49.940;8.450;2022-10-26T08:43:31;16.40;99.90
6244;DHT22;3155;49.940;8.450;2022-10-26T08:46:15;16.90;1.00
6244;DHT22;3155;49.940;8.450;2022-10-26T08:48:46;17.40;1.00
6244;DHT22;3155;49.940;8.450;2022-10-26T08:51:34;17.40;1.00
6244;DHT22;3155;49.940;8.450;2022-10-26T08:54:10;17.20;99.90
6244;DHT22;3155;49.940;8.450;2022-10-26T08:56:57;17.10;99.90
6244;DHT22;3155;49.940;8.450;2022-10-26T08:59:35;17.00;99.90
6244;DHT22;3155;49.940;8.450;2022-10-26T09:02:07;16.40;99.90
6244;DHT22;3155;49.940;8.450;2022-10-26T09:04:36;16.10;99.90
6244;DHT22;3155;49.940;8.450;2022-10-26T09:18:52;16.40;1.00
6244;DHT22;3155;49.940;8.450;2022-10-26T09:21:34;16.20;1.00
6244;DHT22;3155;49.940;8.450;2022-10-26T09:27:23;16.60;1.00
6244;DHT22;3155;49.940;8.450;2022-10-26T09:29:51;16.50;1.00
6244;DHT22;3155;49.940;8.450;2022-10-26T09:32:22;16.70;1.00
6244;DHT22;3155;49.940;8.450;2022-10-26T09:34:54;16.80;1.00
6244;DHT22;3155;49.940;8.450;2022-10-26T09:37:35;16.90;1.00
6244;DHT22;3155;49.940;8.450;2022-10-26T09:40:17;17.10;1.00
6244;DHT22;3155;49.940;8.450;2022-10-26T09:46:01;17.90;1.00
6244;DHT22;3155;49.940;8.450;2022-10-26T09:50:57;18.90;99.90
6244;DHT22;3155;49.940;8.450;2022-10-26T09:53:31;19.00;99.90
6244;DHT22;3155;49.940;8.450;2022-10-26T09:56:04;18.60;99.90
6244;DHT22;3155;49.940;8.450;2022-10-26T09:58:41;18.50;99.90
6244;DHT22;3155;49.940;8.450;2022-10-26T10:01:31;18.40;99.90
6244;DHT22;3155;49.940;8.450;2022-10-26T10:06:49;17.70;99.90
6244;DHT22;3155;49.940;8.450;2022-10-26T10:09:20;17.40;99.90
6244;DHT22;3155;49.940;8.450;2022-10-26T10:11:51;17.20;99.90
6244;DHT22;3155;49.940;8.450;2022-10-26T10:17:24;18.20;99.90
6244;DHT22;3155;49.940;8.450;2022-10-26T10:19:51;18.30;99.90
6244;DHT22;3155;49.940;8.450;2022-10-26T10:22:24;18.70;99.90
6244;DHT22;3155;49.940;8.450;2022-10-26T10:24:57;19.10;99.90
6244;DHT22;3155;49.940;8.450;2022-10-26T10:27:24;20.00;99.90
6244;DHT22;3155;49.940;8.450;2022-10-26T10:29:56;20.00;99.90
6244;DHT22;3155;49.940;8.450;2022-10-26T10:32:30;19.60;99.90
6244;DHT22;3155;49.940;8.450;2022-10-26T10:35:22;19.80;99.90
6244;DHT22;3155;49.940;8.450;2022-10-26T10:37:50;20.20;99.90
6244;DHT22;3155;49.940;8.450;2022-10-26T10:40:23;20.90;99.90
6244;DHT22;3155;49.940;8.450;2022-10-26T10:42:54;21.00;99.90
6244;DHT22;3155;49.940;8.450;2022-10-26T10:45:30;20.30;99.90
6244;DHT22;3155;49.940;8.450;2022-10-26T10:50:56;19.80;99.90
6244;DHT22;3155;49.940;8.450;2022-10-26T10:53:44;20.30;99.90
6244;DHT22;3155;49.940;8.450;2022-10-26T10:57:07;21.00;99.90
6244;DHT22;3155;49.940;8.450;2022-10-26T10:59:27;20.90;99.90
6244;DHT22;3155;49.940;8.450;2022-10-26T11:07:20;20.90;99.90
6244;DHT22;3155;49.940;8.450;2022-10-26T11:09:48;20.40;99.90
6244;DHT22;3155;49.940;8.450;2022-10-26T11:12:29;20.40;99.90
6244;DHT22;3155;49.940;8.450;2022-10-26T11:15:12;20.60;99.90
6244;DHT22;3155;49.940;8.450;2022-10-26T11:17:51;20.70;99.90
6244;DHT22;3155;49.940;8.450;2022-10-26T11:20:23;20.80;99.90
6244;DHT22;3155;49.940;8.450;2022-10-26T11:25:34;20.70;99.90
6244;DHT22;3155;49.940;8.450;2022-10-26T11:28:14;20.80;99.90
6244;DHT22;3155;49.940;8.450;2022-10-26T11:30:46;20.90;99.90
6244;DHT22;3155;49.940;8.450;2022-10-26T11:33:20;20.90;99.90
6244;DHT22;3155;49.940;8.450;2022-10-26T11:35:57;20.90;99.90
6244;DHT22;3155;49.940;8.450;2022-10-26T11:41:35;20.60;99.90
6244;DHT22;3155;49.940;8.450;2022-10-26T11:44:24;20.10;99.90
6244;DHT22;3155;49.940;8.450;2022-10-26T11:46:57;19.70;99.90
6244;DHT22;3155;49.940;8.450;2022-10-26T11:49:37;19.40;99.90
6244;DHT22;3155;49.940;8.450;2022-10-26T11:54:58;19.20;99.90
6244;DHT22;3155;49.940;8.450;2022-10-26T11:57:32;19.30;99.90
6244;DHT22;3155;49.940;8.450;2022-10-26T12:00:12;19.30;99.90
6244;DHT22;3155;49.940;8.450;2022-10-26T12:03:08;19.20;99.90
6244;DHT22;3155;49.940;8.450;2022-10-26T12:08:35;19.50;99.90
6244;DHT22;3155;49.940;8.450;2022-10-26T12:11:31;19.50;99.90
6244;DHT22;3155;49.940;8.450;2022-10-26T12:14:14;19.70;99.90
6244;DHT22;3155;49.940;8.450;2022-10-26T12:19:54;19.70;99.90
6244;DHT22;3155;49.940;8.450;2022-10-26T12:22:51;20.00;99.90
6244;DHT22;3155;49.940;8.450;2022-10-26T12:25:24;20.20;99.90
6244;DHT22;3155;49.940;8.450;2022-10-26T12:27:55;20.50;99.90
6244;DHT22;3155;49.940;8.450;2022-10-26T12:30:29;20.50;99.90
6244;DHT22;3155;49.940;8.450;2022-10-26T12:33:01;20.90;99.90
6244;DHT22;3155;49.940;8.450;2022-10-26T12:38:26;21.10;99.90
6244;DHT22;3155;49.940;8.450;2022-10-26T12:43:36;21.00;99.90
6244;DHT22;3155;49.940;8.450;2022-10-26T12:48:43;21.10;99.90
6244;DHT22;3155;49.940;8.450;2022-10-26T12:54:17;21.20;99.90
6244;DHT22;3155;49.940;8.450;2022-10-26T12:59:30;21.30;99.90
6244;DHT22;3155;49.940;8.450;2022-10-26T13:02:25;20.90;99.90
6244;DHT22;3155;49.940;8.450;2022-10-26T13:07:45;21.20;99.90
6244;DHT22;3155;49.940;8.450;2022-10-26T13:15:38;21.30;99.90
6244;DHT22;3155;49.940;8.450;2022-10-26T13:18:27;21.30;99.90
6244;DHT22;3155;49.940;8.450;2022-10-26T13:21:12;21.30;99.90
6244;DHT22;3155;49.940;8.450;2022-10-26T13:23:45;21.40;99.90
6244;DHT22;3155;49.940;8.450;2022-10-26T13:26:15;21.50;99.90
6244;DHT22;3155;49.940;8.450;2022-10-26T13:34:09;21.90;99.90
6244;DHT22;3155;49.940;8.450;2022-10-26T13:39:17;21.60;99.90
6244;DHT22;3155;49.940;8.450;2022-10-26T13:41:47;21.20;99.90
6244;DHT22;3155;49.940;8.450;2022-10-26T13:44:53;21.20;99.90
6244;DHT22;3155;49.940;8.450;2022-10-26T13:47:57;21.30;99.90
6244;DHT22;3155;49.940;8.450;2022-10-26T13:51:02;21.10;99.90
6244;DHT22;3155;49.940;8.450;2022-10-26T13:56:40;20.60;99.90
6244;DHT22;3155;49.940;8.450;2022-10-26T13:59:30;20.50;99.90
6244;DHT22;3155;49.940;8.450;2022-10-26T14:02:39;20.40;99.90
6244;DHT22;3155;49.940;8.450;2022-10-26T14:05:10;20.50;99.90
6244;DHT22;3155;49.940;8.450;2022-10-26T14:07:55;20.50;99.90
6244;DHT22;3155;49.940;8.450;2022-10-26T14:10:27;20.50;99.90
6244;DHT22;3155;49.940;8.450;2022-10-26T14:12:55;20.50;99.90
6244;DHT22;3155;49.940;8.450;2022-10-26T14:15:30;20.70;99.90
6244;DHT22;3155;49.940;8.450;2022-10-26T14:17:59;20.70;99.90
6244;DHT22;3155;49.940;8.450;2022-10-26T14:20:28;20.90;99.90
6244;DHT22;3155;49.940;8.450;2022-10-26T14:22:58;21.00;99.90
6244;DHT22;3155;49.940;8.450;2022-10-26T14:25:27;21.40;99.90
6244;DHT22;3155;49.940;8.450;2022-10-26T14:28:42;21.80;99.90
6244;DHT22;3155;49.940;8.450;2022-10-26T14:33:50;23.00;99.90
6244;DHT22;3155;49.940;8.450;2022-10-26T14:36:24;23.30;99.90
6244;DHT22;3155;49.940;8.450;2022-10-26T14:39:00;23.40;99.90
6244;DHT22;3155;49.940;8.450;2022-10-26T14:41:33;23.00;99.90
6244;DHT22;3155;49.940;8.450;2022-10-26T14:44:01;23.00;99.90
6244;DHT22;3155;49.940;8.450;2022-10-26T14:46:33;23.00;99.90
6244;DHT22;3155;49.940;8.450;2022-10-26T14:49:00;23.10;99.90
6244;DHT22;3155;49.940;8.450;2022-10-26T14:51:32;23.00;99.90
6244;DHT22;3155;49.940;8.450;2022-10-26T14:54:00;23.00;99.90
6244;DHT22;3155;49.940;8.450;2022-10-26T15:04:59;22.10;99.90
6244;DHT22;3155;49.940;8.450;2022-10-26T15:07:35;21.50;99.90
6244;DHT22;3155;49.940;8.450;2022-10-26T15:10:03;21.10;99.90
6244;DHT22;3155;49.940;8.450;2022-10-26T15:12:37;20.80;99.90
6244;DHT22;3155;49.940;8.450;2022-10-26T15:15:20;20.50;99.90
6244;DHT22;3155;49.940;8.450;2022-10-26T15:17:55;20.40;99.90
6244;DHT22;3155;49.940;8.450;2022-10-26T15:20:27;20.10;99.90
6244;DHT22;3155;49.940;8.450;2022-10-26T15:22:56;20.00;99.90
6244;DHT22;3155;49.940;8.450;2022-10-26T15:25:26;19.80;99.90
6244;DHT22;3155;49.940;8.450;2022-10-26T15:28:05;19.60;99.90
6244;DHT22;3155;49.940;8.450;2022-10-26T15:30:33;19.50;99.90
6244;DHT22;3155;49.940;8.450;2022-10-26T15:33:18;19.30;99.90
6244;DHT22;3155;49.940;8.450;2022-10-26T15:35:45;19.20;99.90
6244;DHT22;3155;49.940;8.450;2022-10-26T15:38:12;19.00;99.90
6244;DHT22;3155;49.940;8.450;2022-10-26T15:40:43;18.80;99.90
6244;DHT22;3155;49.940;8.450;2022-10-26T15:43:10;18.60;99.90
6244;DHT22;3155;49.940;8.450;2022-10-26T15:45:45;18.50;99.90
6244;DHT22;3155;49.940;8.450;2022-10-26T15:48:25;18.40;99.90
6244;DHT22;3155;49.940;8.450;2022-10-26T15:50:54;18.20;99.90
6244;DHT22;3155;49.940;8.450;2022-10-26T15:53:23;18.20;99.90
6244;DHT22;3155;49.940;8.450;2022-10-26T15:55:57;18.10;99.90
6244;DHT22;3155;49.940;8.450;2022-10-26T15:58:26;18.10;99.90
6244;DHT22;3155;49.940;8.450;2022-10-26T16:00:53;18.00;99.90
6244;DHT22;3155;49.940;8.450;2022-10-26T16:03:24;17.80;99.90
6244;DHT22;3155;49.940;8.450;2022-10-26T16:05:57;17.70;99.90
6244;DHT22;3155;49.940;8.450;2022-10-26T16:08:26;17.50;99.90
6244;DHT22;3155;49.940;8.450;2022-10-26T16:10:54;17.40;99.90
6244;DHT22;3155;49.940;8.450;2022-10-26T16:13:21;17.20;99.90
6244;DHT22;3155;49.940;8.450;2022-10-26T16:15:50;17.10;99.90
6244;DHT22;3155;49.940;8.450;2022-10-26T16:18:17;17.00;99.90
6244;DHT22;3155;49.940;8.450;2022-10-26T16:20:45;16.80;99.90
6244;DHT22;3155;49.940;8.450;2022-10-26T16:23:12;16.60;99.90
6244;DHT22;3155;49.940;8.450;2022-10-26T16:25:44;16.50;99.90
6244;DHT22;3155;49.940;8.450;2022-10-26T16:28:13;16.40;99.90
6244;DHT22;3155;49.940;8.450;2022-10-26T16:30:41;16.20;99.90
6244;DHT22;3155;49.940;8.450;2022-10-26T16:33:08;16.10;99.90
6244;DHT22;3155;49.940;8.450;2022-10-26T16:35:34;16.00;99.90
6244;DHT22;3155;49.940;8.450;2022-10-26T16:38:01;15.90;99.90
6244;DHT22;3155;49.940;8.450;2022-10-26T16:40:28;15.80;1.00
6244;DHT22;3155;49.940;8.450;2022-10-26T16:42:54;15.70;1.00
6244;DHT22;3155;49.940;8.450;2022-10-26T16:45:21;15.70;1.00
6244;DHT22;3155;49.940;8.450;2022-10-26T16:47:50;15.70;1.00
6244;DHT22;3155;49.940;8.450;2022-10-26T16:50:18;15.60;1.00
6244;DHT22;3155;49.940;8.450;2022-10-26T16:52:46;15.50;1.00
6244;DHT22;3155;49.940;8.450;2022-10-26T16:55:16;15.40;1.00
6244;DHT22;3155;49.940;8.450;2022-10-26T16:57:43;15.30;19.70
6244;DHT22;3155;49.940;8.450;2022-10-26T17:00:10;15.20;99.90
6244;DHT22;3155;49.940;8.450;2022-10-26T17:02:36;15.10;99.90
6244;DHT22;3155;49.940;8.450;2022-10-26T17:05:03;15.00;99.90
6244;DHT22;3155;49.940;8.450;2022-10-26T17:07:33;14.90;1.00
6244;DHT22;3155;49.940;8.450;2022-10-26T17:10:00;14.80;1.00
6244;DHT22;3155;49.940;8.450;2022-10-26T17:12:26;14.60;47.00
6244;DHT22;3155;49.940;8.450;2022-10-26T17:14:53;14.50;99.90
6244;DHT22;3155;49.940;8.450;2022-10-26T17:17:21;14.40;99.90
6244;DHT22;3155;49.940;8.450;2022-10-26T17:19:48;14.30;99.90
6244;DHT22;3155;49.940;8.450;2022-10-26T17:22:15;14.30;1.00
6244;DHT22;3155;49.940;8.450;2022-10-26T17:24:41;14.30;99.90
6244;DHT22;3155;49.940;8.450;2022-10-26T17:27:08;14.30;99.90
6244;DHT22;3155;49.940;8.450;2022-10-26T17:29:34;14.50;98.10
6244;DHT22;3155;49.940;8.450;2022-10-26T17:32:01;14.50;99.90
6244;DHT22;3155;49.940;8.450;2022-10-26T17:34:28;14.40;1.00
6244;DHT22;3155;49.940;8.450;2022-10-26T17:36:55;14.40;1.00
6244;DHT22;3155;49.940;8.450;2022-10-26T17:39:21;14.30;22.80
6244;DHT22;3155;49.940;8.450;2022-10-26T17:41:51;14.30;99.90
6244;DHT22;3155;49.940;8.450;2022-10-26T17:44:18;14.20;32.30
6244;DHT22;3155;49.940;8.450;2022-10-26T17:46:46;14.20;88.90
6244;DHT22;3155;49.940;8.450;2022-10-26T17:49:12;14.10;55.90
6244;DHT22;3155;49.940;8.450;2022-10-26T17:51:39;14.00;99.90
6244;DHT22;3155;49.940;8.450;2022-10-26T17:54:06;13.90;1.00
6244;DHT22;3155;49.940;8.450;2022-10-26T17:56:33;13.80;99.90
6244;DHT22;3155;49.940;8.450;2022-10-26T17:59:02;13.80;99.90
6244;DHT22;3155;49.940;8.450;2022-10-26T18:01:30;13.80;1.00
6244;DHT22;3155;49.940;8.450;2022-10-26T18:03:58;13.80;1.00
6244;DHT22;3155;49.940;8.450;2022-10-26T18:06:25;13.70;1.00
6244;DHT22;3155;49.940;8.450;2022-10-26T18:08:52;13.50;1.00
6244;DHT22;3155;49.940;8.450;2022-10-26T18:11:20;13.50;1.00
6244;DHT22;3155;49.940;8.450;2022-10-26T18:13:53;13.40;55.90
6244;DHT22;3155;49.940;8.450;2022-10-26T18:16:21;13.40;99.90
6244;DHT22;3155;49.940;8.450;2022-10-26T18:19:08;13.40;99.90
6244;DHT22;3155;49.940;8.450;2022-10-26T18:21:39;13.30;99.90
6244;DHT22;3155;49.940;8.450;2022-10-26T18:24:06;13.20;99.90
6244;DHT22;3155;49.940;8.450;2022-10-26T18:26:34;13.10;99.90
6244;DHT22;3155;49.940;8.450;2022-10-26T18:29:02;13.00;99.90
6244;DHT22;3155;49.940;8.450;2022-10-26T18:31:31;13.00;99.90
6244;DHT22;3155;49.940;8.450;2022-10-26T18:34:00;13.00;1.00
6244;DHT22;3155;49.940;8.450;2022-10-26T18:36:28;13.00;1.00
6244;DHT22;3155;49.940;8.450;2022-10-26T18:38:55;13.00;1.00
6244;DHT22;3155;49.940;8.450;2022-10-26T18:41:23;13.10;1.00
6244;DHT22;3155;49.940;8.450;2022-10-26T18:43:51;13.10;1.00
6244;DHT22;3155;49.940;8.450;2022-10-26T18:46:39;13.20;1.00
6244;DHT22;3155;49.940;8.450;2022-10-26T18:49:08;13.20;1.00
6244;DHT22;3155;49.940;8.450;2022-10-26T18:51:35;13.10;1.00
6244;DHT22;3155;49.940;8.450;2022-10-26T18:54:02;12.90;1.00
6244;DHT22;3155;49.940;8.450;2022-10-26T18:56:31;12.80;1.00